Time;durP1;ratioP1;P1;durP2;ratioP2;P2;SDS_P1;SDS_P2;PMS_P1;PMS_P2;Temp;Humidity;BMP_temperature;BMP_pressure;BME280_temperature;BME280_humidity;BME280_pressure;Samples;Min_cycle;Max_cycle;Signal;HPM_P1;HPM_P2
2020/12/05 00:01:52;;;;;;;18.67;11.90;;;2.50;99.90;;;;;;5079347;28;20212;-54
2020/12/05 00:04:18;;;;;;;18.90;12.53;;;2.50;99.90;;;;;;5063728;28;20175;-44
2020/12/05 00:06:44;;;;;;;18.33;11.60;;;2.40;99.90;;;;;;5077032;28;20626;-53
2020/12/05 00:09:11;;;;;;;23.87;12.63;;;2.40;99.90;;;;;;5087662;28;20186;-47
2020/12/05 00:11:36;;;;;;;16.20;11.30;;;2.30;99.90;;;;;;5077675;28;20174;-51
2020/12/05 00:14:02;;;;;;;19.87;12.40;;;2.30;99.90;;;;;;5072043;28;20288;-53
2020/12/05 00:16:27;;;;;;;22.03;12.37;;;2.20;99.90;;;;;;5064830;28;20948;-48
2020/12/05 00:18:54;;;;;;;21.27;11.77;;;2.20;99.90;;;;;;5079102;28;20189;-54
2020/12/05 00:21:21;;;;;;;20.73;12.33;;;2.20;99.90;;;;;;5070353;28;20174;-45
2020/12/05 00:23:46;;;;;;;23.33;12.17;;;2.10;99.90;;;;;;5063352;28;20197;-52
2020/12/05 00:26:16;;;;;;;19.17;12.43;;;2.00;99.90;;;;;;5082711;28;20883;-48
2020/12/05 00:28:41;;;;;;;20.57;12.00;;;1.90;99.90;;;;;;5070875;28;20262;-51
2020/12/05 00:31:07;;;;;;;20.43;12.33;;;1.90;99.90;;;;;;5062467;28;20638;-42
2020/12/05 00:33:33;;;;;;;16.87;11.37;;;1.80;99.90;;;;;;5083751;28;20280;-54
2020/12/05 00:35:58;;;;;;;23.93;12.83;;;1.80;99.90;;;;;;5071112;28;20649;-50
2020/12/05 00:38:24;;;;;;;22.83;13.37;;;1.80;99.90;;;;;;5057669;28;20244;-48
2020/12/05 00:40:49;;;;;;;20.87;12.67;;;1.80;99.90;;;;;;5063709;28;20194;-47
2020/12/05 00:43:15;;;;;;;20.63;13.13;;;1.80;99.90;;;;;;5078199;28;20201;-46
2020/12/05 00:45:40;;;;;;;19.37;12.00;;;1.70;99.90;;;;;;5069148;28;20191;-49
2020/12/05 00:48:06;;;;;;;19.53;12.40;;;1.70;99.90;;;;;;5075102;28;20263;-47
2020/12/05 00:50:31;;;;;;;21.43;12.57;;;1.60;99.90;;;;;;5080977;28;20824;-49
2020/12/05 00:52:57;;;;;;;20.57;12.33;;;1.60;99.90;;;;;;5068328;28;20220;-49
2020/12/05 00:55:22;;;;;;;22.30;12.73;;;1.60;99.90;;;;;;5078988;28;20173;-44
2020/12/05 00:57:48;;;;;;;21.90;13.13;;;1.60;99.90;;;;;;5064150;28;20217;-47
2020/12/05 01:00:15;;;;;;;22.07;14.77;;;1.50;99.90;;;;;;5071007;28;20197;-45
2020/12/05 01:02:41;;;;;;;17.90;11.57;;;1.50;99.90;;;;;;5076793;28;20208;-48
2020/12/05 01:05:06;;;;;;;18.43;12.37;;;1.40;99.90;;;;;;5082492;28;20177;-45
2020/12/05 01:07:32;;;;;;;19.20;12.50;;;1.40;99.90;;;;;;5069167;28;20695;-48
2020/12/05 01:09:57;;;;;;;17.40;11.30;;;1.40;99.90;;;;;;5059988;28;20599;-50
2020/12/05 01:12:24;;;;;;;18.40;12.07;;;1.40;99.90;;;;;;5077347;28;20205;-46
2020/12/05 01:14:50;;;;;;;19.23;11.70;;;1.30;99.90;;;;;;5079231;28;20181;-52
2020/12/05 01:17:15;;;;;;;22.83;13.17;;;1.30;99.90;;;;;;5059373;28;20190;-47
2020/12/05 01:19:41;;;;;;;21.53;13.10;;;1.30;99.90;;;;;;5077992;28;20891;-51
2020/12/05 01:22:06;;;;;;;22.63;14.00;;;1.20;99.90;;;;;;5070933;28;20216;-49
2020/12/05 01:24:32;;;;;;;24.93;14.30;;;1.20;99.90;;;;;;5067016;28;20687;-48
2020/12/05 01:26:57;;;;;;;21.53;13.77;;;1.20;99.90;;;;;;5068770;28;20601;-54
2020/12/05 01:29:23;;;;;;;25.73;15.17;;;1.20;99.90;;;;;;5059220;28;20214;-45
2020/12/05 01:31:49;;;;;;;25.27;15.27;;;1.20;99.90;;;;;;5076932;28;20305;-50
2020/12/05 01:34:17;;;;;;;24.33;15.10;;;1.30;99.90;;;;;;5069430;28;20680;-49
2020/12/05 01:36:46;;;;;;;27.87;15.83;;;1.30;99.90;;;;;;5078131;28;20177;-52
2020/12/05 01:39:12;;;;;;;29.40;15.57;;;1.30;99.90;;;;;;5070272;28;20736;-45
2020/12/05 01:41:38;;;;;;;24.33;15.13;;;1.30;99.90;;;;;;5058756;28;20330;-54
2020/12/05 01:44:04;;;;;;;27.97;15.80;;;1.30;99.90;;;;;;5062241;28;20187;-49
2020/12/05 01:46:38;;;;;;;30.13;16.43;;;1.40;99.90;;;;;;5077841;28;20921;-50
2020/12/05 01:49:06;;;;;;;26.47;15.53;;;1.40;99.90;;;;;;5077692;28;20189;-55
2020/12/05 01:51:31;;;;;;;25.93;15.83;;;1.40;99.90;;;;;;5079695;28;20180;-53
2020/12/05 01:53:58;;;;;;;26.47;15.40;;;1.40;99.90;;;;;;5082566;28;20181;-55
2020/12/05 01:56:26;;;;;;;25.70;15.47;;;1.40;99.90;;;;;;5057983;28;20189;-45
2020/12/05 01:58:52;;;;;;;27.60;15.67;;;1.50;99.90;;;;;;5075999;28;20189;-50
2020/12/05 02:01:24;;;;;;;28.27;16.30;;;1.50;99.90;;;;;;5069914;28;20227;-44
2020/12/05 02:03:57;;;;;;;26.90;15.63;;;1.50;99.90;;;;;;5064485;28;20514;-48
2020/12/05 02:06:47;;;;;;;26.33;15.10;;;1.50;99.90;;;;;;5078645;28;20384;-45
2020/12/05 02:09:21;;;;;;;24.37;14.70;;;1.50;99.90;;;;;;5080140;28;20188;-46
2020/12/05 02:11:58;;;;;;;29.60;15.80;;;1.50;99.90;;;;;;5075638;28;20196;-52
2020/12/05 02:14:27;;;;;;;27.87;16.50;;;1.50;99.90;;;;;;5085917;28;20168;-47
2020/12/05 02:16:54;;;;;;;31.77;16.57;;;1.50;99.90;;;;;;5062661;28;20690;-51
2020/12/05 02:19:22;;;;;;;27.57;14.83;;;1.40;99.90;;;;;;5069890;28;20333;-45
2020/12/05 02:21:52;;;;;;;28.70;16.17;;;1.50;99.90;;;;;;5067380;28;20282;-54
2020/12/05 02:24:18;;;;;;;26.30;16.37;;;1.50;99.90;;;;;;5071796;28;20272;-47
2020/12/05 02:26:44;;;;;;;25.33;15.33;;;1.40;99.90;;;;;;5058273;28;20409;-51
2020/12/05 02:29:10;;;;;;;25.00;16.03;;;1.50;99.90;;;;;;5063483;28;20189;-46
2020/12/05 02:31:36;;;;;;;25.57;15.03;;;1.40;99.90;;;;;;5079892;28;20169;-48
2020/12/05 02:34:02;;;;;;;23.47;15.60;;;1.40;99.90;;;;;;5076722;28;20184;-50
2020/12/05 02:36:31;;;;;;;25.80;15.73;;;1.40;99.90;;;;;;5077593;28;20202;-49
2020/12/05 02:39:10;;;;;;;31.00;16.33;;;1.40;99.90;;;;;;5077739;28;20180;-52
2020/12/05 02:41:37;;;;;;;24.57;15.30;;;1.40;99.90;;;;;;5061513;28;20235;-51
2020/12/05 02:44:03;;;;;;;34.63;17.17;;;1.40;99.90;;;;;;5072717;28;20185;-55
2020/12/05 02:46:29;;;;;;;33.30;17.73;;;1.40;99.90;;;;;;5059625;28;20229;-54
2020/12/05 02:48:54;;;;;;;30.50;16.90;;;1.40;99.90;;;;;;5068660;28;20172;-52
2020/12/05 02:51:20;;;;;;;31.13;16.33;;;1.40;99.90;;;;;;5058638;28;20208;-44
2020/12/05 02:53:45;;;;;;;29.40;16.47;;;1.40;99.90;;;;;;5082170;28;20535;-52
2020/12/05 02:56:18;;;;;;;27.87;16.73;;;1.40;99.90;;;;;;5073029;28;20234;-48
2020/12/05 02:58:46;;;;;;;30.70;15.80;;;1.40;99.90;;;;;;5069197;28;20266;-55
2020/12/05 03:01:12;;;;;;;26.63;16.40;;;1.40;99.90;;;;;;5065076;28;20689;-43
2020/12/05 03:03:39;;;;;;;28.77;17.07;;;1.40;99.90;;;;;;5076961;28;20198;-49
2020/12/05 03:06:04;;;;;;;26.03;15.23;;;1.40;99.90;;;;;;5057156;28;20198;-46
2020/12/05 03:08:30;;;;;;;32.37;17.17;;;1.40;99.90;;;;;;5072430;28;20202;-51
2020/12/05 03:10:55;;;;;;;27.43;16.63;;;1.40;99.90;;;;;;5072570;28;20178;-52
2020/12/05 03:13:21;;;;;;;27.00;15.87;;;1.40;99.90;;;;;;5074457;28;20203;-44
2020/12/05 03:15:46;;;;;;;27.53;15.27;;;1.30;99.90;;;;;;5062316;28;20190;-52
2020/12/05 03:18:12;;;;;;;26.77;15.70;;;1.30;99.90;;;;;;5064833;28;20636;-48
2020/12/05 03:20:37;;;;;;;27.27;16.03;;;1.30;99.90;;;;;;5072074;28;20431;-53
2020/12/05 03:23:03;;;;;;;29.43;16.87;;;1.30;99.90;;;;;;5079629;28;20271;-52
2020/12/05 03:25:28;;;;;;;26.90;15.73;;;1.30;99.90;;;;;;5061771;28;20185;-51
2020/12/05 03:27:54;;;;;;;30.57;15.60;;;1.30;99.90;;;;;;5071228;28;20252;-53
2020/12/05 03:30:19;;;;;;;33.60;17.30;;;1.30;99.90;;;;;;5060468;28;20187;-44
2020/12/05 03:32:46;;;;;;;27.80;16.73;;;1.30;99.90;;;;;;5080882;28;20235;-53
2020/12/05 03:35:11;;;;;;;27.23;16.50;;;1.30;99.90;;;;;;5060687;28;20209;-44
2020/12/05 03:37:38;;;;;;;32.37;16.83;;;1.40;99.90;;;;;;5085323;28;20498;-52
2020/12/05 03:40:05;;;;;;;28.50;16.83;;;1.30;99.90;;;;;;5070652;28;20189;-52
2020/12/05 03:42:30;;;;;;;29.77;16.10;;;1.30;99.90;;;;;;5062882;28;20991;-51
2020/12/05 03:44:55;;;;;;;28.77;16.93;;;1.30;99.90;;;;;;5074558;28;20646;-53
2020/12/05 03:47:21;;;;;;;29.47;15.80;;;1.30;99.90;;;;;;5059144;28;20213;-45
2020/12/05 03:49:47;;;;;;;29.33;17.57;;;1.30;99.90;;;;;;5066215;28;20198;-53
2020/12/05 03:52:13;;;;;;;28.33;17.43;;;1.40;99.90;;;;;;5084813;28;20207;-43
2020/12/05 03:54:38;;;;;;;28.90;16.47;;;1.40;99.90;;;;;;5082742;28;20181;-46
2020/12/05 03:57:04;;;;;;;34.00;17.57;;;1.40;99.90;;;;;;5080227;28;20524;-45
2020/12/05 03:59:29;;;;;;;31.57;17.93;;;1.40;99.90;;;;;;5061900;28;20190;-51
2020/12/05 04:01:55;;;;;;;32.43;17.47;;;1.40;99.90;;;;;;5061207;28;20236;-53
2020/12/05 04:04:21;;;;;;;31.97;16.77;;;1.40;99.90;;;;;;5077444;28;20184;-44
2020/12/05 04:06:46;;;;;;;27.97;16.73;;;1.50;99.90;;;;;;5071862;28;20235;-50
2020/12/05 04:09:12;;;;;;;31.13;18.00;;;1.50;99.90;;;;;;5082623;28;20212;-45
2020/12/05 04:11:39;;;;;;;30.87;17.93;;;1.50;99.90;;;;;;5066543;28;20999;-46
2020/12/05 04:14:05;;;;;;;29.53;18.50;;;1.50;99.90;;;;;;5080757;28;20175;-43
2020/12/05 04:16:31;;;;;;;34.83;18.90;;;1.60;99.90;;;;;;5068736;28;20189;-53
2020/12/05 04:18:57;;;;;;;32.87;18.33;;;1.60;99.90;;;;;;5062736;28;20213;-44
2020/12/05 04:21:22;;;;;;;28.57;16.87;;;1.60;99.90;;;;;;5079886;28;20217;-51
2020/12/05 04:23:47;;;;;;;46.97;18.50;;;1.60;99.90;;;;;;5072799;28;20188;-44
2020/12/05 04:26:13;;;;;;;35.67;18.57;;;1.60;99.90;;;;;;5076312;28;21019;-51
2020/12/05 04:28:38;;;;;;;32.80;19.27;;;1.60;99.90;;;;;;5067437;28;20220;-50
2020/12/05 04:31:04;;;;;;;32.90;17.63;;;1.60;99.90;;;;;;5070790;28;20839;-49
2020/12/05 04:33:29;;;;;;;29.87;18.20;;;1.70;99.90;;;;;;5065279;28;20210;-52
2020/12/05 04:35:55;;;;;;;35.90;18.90;;;1.70;99.90;;;;;;5064475;28;20652;-43
2020/12/05 04:38:20;;;;;;;32.73;17.47;;;1.70;99.90;;;;;;5067639;28;20553;-50
2020/12/05 04:40:47;;;;;;;36.50;19.27;;;1.70;99.90;;;;;;5072354;28;20192;-43
2020/12/05 04:43:13;;;;;;;31.83;18.37;;;1.80;99.90;;;;;;5068016;28;20194;-53
2020/12/05 04:45:39;;;;;;;29.97;17.67;;;1.80;99.90;;;;;;5084658;28;20181;-51
2020/12/05 04:48:06;;;;;;;32.57;17.80;;;1.80;99.90;;;;;;5065107;28;20213;-52
2020/12/05 04:50:34;;;;;;;28.60;18.30;;;1.80;99.90;;;;;;5084635;28;20275;-52
2020/12/05 04:53:11;;;;;;;33.93;18.93;;;1.80;99.90;;;;;;5052242;28;20505;-51
2020/12/05 04:55:41;;;;;;;28.30;17.07;;;1.80;99.90;;;;;;5093808;28;20183;-49
2020/12/05 04:58:19;;;;;;;37.03;18.27;;;1.90;99.90;;;;;;5076433;28;20330;-50
2020/12/05 05:00:45;;;;;;;30.10;17.50;;;1.90;99.90;;;;;;5068669;28;20198;-48
2020/12/05 05:03:15;;;;;;;31.23;18.33;;;1.90;99.90;;;;;;5083430;28;20215;-55
2020/12/05 05:05:41;;;;;;;33.63;17.07;;;1.90;99.90;;;;;;5063734;28;20213;-46
2020/12/05 05:08:06;;;;;;;28.53;17.70;;;1.90;99.90;;;;;;5057467;28;20213;-50
2020/12/05 05:10:34;;;;;;;29.27;16.50;;;1.90;99.90;;;;;;5081760;28;20241;-55
2020/12/05 05:13:06;;;;;;;31.47;17.77;;;1.90;99.90;;;;;;5075325;28;20204;-55
2020/12/05 05:15:32;;;;;;;32.63;17.87;;;1.90;99.90;;;;;;5075335;28;20217;-44
2020/12/05 05:18:08;;;;;;;31.83;18.40;;;1.90;99.90;;;;;;5070787;28;20307;-49
2020/12/05 05:20:39;;;;;;;30.87;17.27;;;1.90;99.90;;;;;;5069297;28;20200;-45
2020/12/05 05:23:15;;;;;;;33.37;18.30;;;1.90;99.90;;;;;;5063012;28;20745;-49
2020/12/05 05:25:52;;;;;;;33.57;19.67;;;1.90;99.90;;;;;;5066859;28;20215;-44
2020/12/05 05:28:39;;;;;;;31.20;17.53;;;1.90;99.90;;;;;;5083807;28;20205;-53
2020/12/05 05:31:14;;;;;;;37.03;18.57;;;2.00;99.90;;;;;;5062055;28;20691;-52
2020/12/05 05:33:50;;;;;;;30.80;17.87;;;2.00;99.90;;;;;;5078869;28;20299;-44
2020/12/05 05:36:24;;;;;;;31.27;18.10;;;2.00;99.90;;;;;;5065340;28;20189;-47
2020/12/05 05:38:58;;;;;;;30.53;18.00;;;2.00;99.90;;;;;;5075739;28;21330;-51
2020/12/05 05:41:24;;;;;;;31.60;18.33;;;2.00;99.90;;;;;;5081107;28;20181;-45
2020/12/05 05:43:54;;;;;;;32.90;17.13;;;2.00;99.90;;;;;;5064730;28;20193;-47
2020/12/05 05:46:42;;;;;;;33.70;18.80;;;2.00;99.90;;;;;;5077494;28;20208;-51
2020/12/05 05:49:09;;;;;;;32.47;18.57;;;2.00;99.90;;;;;;5079306;28;20207;-47
2020/12/05 05:51:48;;;;;;;31.37;18.40;;;2.00;99.90;;;;;;5069020;28;20356;-48
2020/12/05 05:54:17;;;;;;;29.57;18.67;;;2.00;99.90;;;;;;5076274;28;20212;-46
2020/12/05 05:56:59;;;;;;;36.07;18.73;;;2.00;99.90;;;;;;5059706;28;21489;-48
2020/12/05 05:59:30;;;;;;;30.50;18.40;;;2.10;99.90;;;;;;5079486;28;20916;-47
2020/12/05 06:01:57;;;;;;;31.03;18.17;;;2.10;99.90;;;;;;5060050;28;20197;-51
2020/12/05 06:04:35;;;;;;;32.13;18.03;;;2.10;99.90;;;;;;5067012;28;20223;-45
2020/12/05 06:07:02;;;;;;;32.17;19.47;;;2.00;99.90;;;;;;5068770;28;20205;-48
2020/12/05 06:09:43;;;;;;;28.57;17.80;;;2.00;99.90;;;;;;5066732;28;20176;-48
2020/12/05 06:12:11;;;;;;;30.33;18.53;;;2.10;99.90;;;;;;5065618;28;20566;-51
2020/12/05 06:14:39;;;;;;;35.20;19.13;;;2.10;99.90;;;;;;5072314;28;20238;-48
2020/12/05 06:17:07;;;;;;;30.77;18.27;;;2.00;99.90;;;;;;5067459;28;20196;-53
2020/12/05 06:19:32;;;;;;;32.90;18.67;;;2.10;99.90;;;;;;5071097;28;20304;-48
2020/12/05 06:21:58;;;;;;;33.30;18.37;;;2.10;99.90;;;;;;5060815;28;20641;-47
2020/12/05 06:24:40;;;;;;;30.63;18.67;;;2.10;99.90;;;;;;5056063;28;20453;-49
2020/12/05 06:27:07;;;;;;;32.40;18.30;;;2.10;99.90;;;;;;5054564;28;20258;-49
2020/12/05 06:29:37;;;;;;;31.90;18.60;;;2.00;99.90;;;;;;5102862;28;20188;-47
2020/12/05 06:32:03;;;;;;;34.13;18.03;;;2.00;99.90;;;;;;5062315;28;20693;-47
2020/12/05 06:34:43;;;;;;;30.17;17.77;;;2.10;99.90;;;;;;5061940;28;20193;-45
2020/12/05 06:37:31;;;;;;;29.40;17.17;;;2.10;99.90;;;;;;5059557;28;20201;-49
2020/12/05 06:40:04;;;;;;;32.23;17.60;;;2.00;99.90;;;;;;5064176;28;20189;-49
2020/12/05 06:42:38;;;;;;;27.07;17.03;;;2.00;99.90;;;;;;5071933;28;20757;-47
2020/12/05 06:45:05;;;;;;;34.47;19.07;;;2.10;99.90;;;;;;5069370;28;20197;-51
2020/12/05 06:47:30;;;;;;;32.53;18.90;;;2.10;99.90;;;;;;5066963;28;20231;-47
2020/12/05 06:49:56;;;;;;;34.90;19.10;;;2.10;99.90;;;;;;5069385;28;20172;-51
2020/12/05 06:52:21;;;;;;;29.03;17.53;;;2.10;99.90;;;;;;5074527;28;20224;-49
2020/12/05 06:54:58;;;;;;;35.30;19.57;;;2.00;99.90;;;;;;5070490;28;20192;-49
2020/12/05 06:57:29;;;;;;;32.40;19.03;;;2.00;99.90;;;;;;5066316;28;20230;-47
2020/12/05 07:00:17;;;;;;;33.83;18.50;;;2.00;99.90;;;;;;5080090;28;20181;-50
2020/12/05 07:02:49;;;;;;;31.40;17.17;;;2.00;99.90;;;;;;5077467;28;20561;-46
2020/12/05 07:05:21;;;;;;;31.50;17.40;;;1.90;99.90;;;;;;5086737;28;20870;-48
2020/12/05 07:07:48;;;;;;;31.10;18.40;;;1.90;99.90;;;;;;5064424;28;20296;-49
2020/12/05 07:10:16;;;;;;;29.30;16.90;;;1.80;99.90;;;;;;5058843;28;20185;-50
2020/12/05 07:12:42;;;;;;;31.43;18.47;;;1.80;99.90;;;;;;5068301;28;20209;-50
2020/12/05 07:15:25;;;;;;;31.87;18.13;;;1.80;99.90;;;;;;5069407;28;20200;-48
2020/12/05 07:17:55;;;;;;;31.50;17.87;;;1.80;99.90;;;;;;5080443;28;20192;-54
2020/12/05 07:20:21;;;;;;;30.53;17.63;;;1.80;99.90;;;;;;5076863;28;20932;-45
2020/12/05 07:22:53;;;;;;;35.60;20.47;;;1.80;99.90;;;;;;5076045;28;20224;-45
2020/12/05 07:25:20;;;;;;;32.93;18.83;;;1.80;99.90;;;;;;5062008;28;20195;-46
2020/12/05 07:27:47;;;;;;;36.30;19.27;;;1.80;99.90;;;;;;5066140;28;20526;-47
2020/12/05 07:30:13;;;;;;;37.00;19.83;;;1.80;99.90;;;;;;5065192;28;20193;-43
2020/12/05 07:32:41;;;;;;;35.17;19.53;;;1.80;99.90;;;;;;5068269;28;20546;-42
2020/12/05 07:35:15;;;;;;;37.57;20.20;;;1.80;99.90;;;;;;5064489;28;20641;-46
2020/12/05 07:37:41;;;;;;;32.93;18.77;;;1.80;99.90;;;;;;5085604;28;20185;-43
2020/12/05 07:40:07;;;;;;;35.50;20.33;;;1.80;99.90;;;;;;5070139;28;20549;-50
2020/12/05 07:42:38;;;;;;;34.23;20.50;;;1.80;99.90;;;;;;5074033;28;20244;-45
2020/12/05 07:45:14;;;;;;;37.00;20.47;;;1.90;99.90;;;;;;5064196;28;20792;-52
2020/12/05 07:47:40;;;;;;;35.63;20.03;;;1.90;99.90;;;;;;5068788;28;20224;-47
2020/12/05 07:50:08;;;;;;;35.90;19.67;;;1.90;99.90;;;;;;5062706;28;20842;-47
2020/12/05 07:52:34;;;;;;;39.83;20.37;;;1.90;99.90;;;;;;5066186;28;20244;-47
2020/12/05 07:55:02;;;;;;;34.13;20.27;;;1.90;99.90;;;;;;5069995;28;20658;-47
2020/12/05 07:57:35;;;;;;;35.30;20.27;;;1.90;99.90;;;;;;5079310;28;20935;-45
2020/12/05 08:00:05;;;;;;;34.23;19.70;;;1.90;99.90;;;;;;5070644;28;20337;-46
2020/12/05 08:03:00;;;;;;;36.33;20.80;;;2.00;99.90;;;;;;5083591;28;20248;-46
2020/12/05 08:05:29;;;;;;;36.53;19.47;;;2.00;99.90;;;;;;5071423;28;20193;-45
2020/12/05 08:08:02;;;;;;;37.17;20.20;;;2.10;99.90;;;;;;5085228;28;20593;-50
2020/12/05 08:10:31;;;;;;;33.23;19.60;;;2.10;99.90;;;;;;5073547;28;20533;-49
2020/12/05 08:13:11;;;;;;;34.93;20.17;;;2.10;99.90;;;;;;5062993;28;20630;-48
2020/12/05 08:15:38;;;;;;;37.50;20.17;;;2.10;99.90;;;;;;5057715;28;20193;-46
2020/12/05 08:18:04;;;;;;;32.87;19.77;;;2.20;99.90;;;;;;5063269;28;20201;-45
2020/12/05 08:20:31;;;;;;;36.70;20.00;;;2.20;99.90;;;;;;5065011;28;20583;-47
2020/12/05 08:22:58;;;;;;;31.07;18.97;;;2.20;99.90;;;;;;5066311;28;20264;-50
2020/12/05 08:25:24;;;;;;;33.17;19.27;;;2.20;99.90;;;;;;5059330;28;20519;-46
2020/12/05 08:27:51;;;;;;;30.97;18.50;;;2.30;99.90;;;;;;5059901;28;20209;-46
2020/12/05 08:30:17;;;;;;;33.40;19.80;;;2.30;99.90;;;;;;5063131;28;20311;-47
2020/12/05 08:32:43;;;;;;;35.80;19.50;;;2.30;99.90;;;;;;5075830;28;20193;-46
2020/12/05 08:35:10;;;;;;;34.27;19.30;;;2.40;99.90;;;;;;5075590;28;20188;-47
2020/12/05 08:37:41;;;;;;;36.10;20.73;;;2.40;99.90;;;;;;5064365;28;20638;-47
2020/12/05 08:40:07;;;;;;;34.63;21.03;;;2.40;99.90;;;;;;5061017;28;20181;-52
2020/12/05 08:42:32;;;;;;;33.13;19.80;;;2.40;99.90;;;;;;5055307;28;20224;-51
2020/12/05 08:44:58;;;;;;;34.37;19.23;;;2.40;99.90;;;;;;5064106;28;20901;-48
2020/12/05 08:47:23;;;;;;;34.73;19.37;;;2.40;99.90;;;;;;5085297;28;20225;-44
2020/12/05 08:49:49;;;;;;;34.63;20.27;;;2.40;99.90;;;;;;5075537;28;20247;-47
2020/12/05 08:52:16;;;;;;;34.23;20.50;;;2.40;99.90;;;;;;5073200;28;20593;-45
2020/12/05 08:54:48;;;;;;;34.90;19.80;;;2.50;99.90;;;;;;5074837;28;20190;-51
2020/12/05 08:57:15;;;;;;;35.90;20.43;;;2.50;99.90;;;;;;5062345;28;20198;-48
2020/12/05 08:59:44;;;;;;;38.10;20.83;;;2.50;99.90;;;;;;5058266;28;20267;-49
2020/12/05 09:02:11;;;;;;;35.30;19.47;;;2.50;99.90;;;;;;5062850;28;20248;-48
2020/12/05 09:04:38;;;;;;;34.53;19.47;;;2.50;99.90;;;;;;5059512;28;20275;-45
2020/12/05 09:07:14;;;;;;;32.23;18.90;;;2.50;99.90;;;;;;5059925;28;20214;-45
2020/12/05 09:09:42;;;;;;;33.73;20.03;;;2.50;99.90;;;;;;5059961;28;20738;-45
2020/12/05 09:12:13;;;;;;;30.93;18.73;;;2.60;99.90;;;;;;5064272;28;20702;-45
2020/12/05 09:14:40;;;;;;;31.83;18.63;;;2.60;99.90;;;;;;5057047;28;20193;-46
2020/12/05 09:17:26;;;;;;;32.97;19.47;;;2.60;99.90;;;;;;5075980;28;20583;-45
2020/12/05 09:19:58;;;;;;;38.20;20.53;;;2.60;99.90;;;;;;5059536;28;20330;-45
2020/12/05 09:22:31;;;;;;;34.50;19.40;;;2.60;99.90;;;;;;5064481;28;20798;-49
2020/12/05 09:24:56;;;;;;;35.80;19.40;;;2.60;99.90;;;;;;5084041;28;20652;-46
2020/12/05 09:27:32;;;;;;;33.70;19.97;;;2.60;99.90;;;;;;5070703;28;20293;-46
2020/12/05 09:29:57;;;;;;;33.70;19.33;;;2.60;99.90;;;;;;5060657;28;20189;-45
2020/12/05 09:32:35;;;;;;;33.30;19.20;;;2.70;99.90;;;;;;5075344;28;20209;-47
2020/12/05 09:35:01;;;;;;;34.63;20.27;;;2.70;99.90;;;;;;5064416;28;20254;-46
2020/12/05 09:37:26;;;;;;;35.40;20.27;;;2.70;99.90;;;;;;5057344;28;20264;-50
2020/12/05 09:39:52;;;;;;;35.10;19.70;;;2.70;99.90;;;;;;5060058;28;20206;-46
2020/12/05 09:42:24;;;;;;;38.97;20.20;;;2.80;99.90;;;;;;5062442;28;20195;-48
2020/12/05 09:44:50;;;;;;;36.13;19.93;;;2.70;99.90;;;;;;5061484;28;20170;-48
2020/12/05 09:47:16;;;;;;;39.87;22.20;;;2.80;99.90;;;;;;5062657;28;20673;-53
2020/12/05 09:49:41;;;;;;;37.60;21.13;;;2.80;99.90;;;;;;5068196;28;20196;-44
2020/12/05 09:52:07;;;;;;;34.40;19.47;;;2.80;99.90;;;;;;5104072;28;20257;-46
2020/12/05 09:54:36;;;;;;;34.50;20.13;;;2.80;99.90;;;;;;5075165;28;20187;-51
2020/12/05 09:57:05;;;;;;;35.13;20.33;;;2.70;99.90;;;;;;5068100;28;20186;-48
2020/12/05 09:59:30;;;;;;;35.90;19.77;;;2.80;99.90;;;;;;5059641;28;20174;-51
2020/12/05 10:01:56;;;;;;;37.23;20.93;;;2.80;99.90;;;;;;5062847;28;20245;-46
2020/12/05 10:04:22;;;;;;;35.90;20.43;;;2.80;99.90;;;;;;5056216;28;20642;-50
2020/12/05 10:06:48;;;;;;;38.53;21.37;;;2.80;99.90;;;;;;5074273;28;20196;-46
2020/12/05 10:09:13;;;;;;;34.13;19.53;;;2.80;99.90;;;;;;5083637;28;20177;-47
2020/12/05 10:11:39;;;;;;;35.10;19.30;;;2.80;99.90;;;;;;5055285;28;20181;-45
2020/12/05 10:14:05;;;;;;;35.63;20.13;;;2.80;99.90;;;;;;5062760;28;20175;-46
2020/12/05 10:16:32;;;;;;;37.97;20.30;;;2.80;99.90;;;;;;5059858;28;20657;-51
2020/12/05 10:18:58;;;;;;;33.33;19.23;;;2.80;99.90;;;;;;5063235;28;20180;-44
2020/12/05 10:21:23;;;;;;;38.57;21.00;;;2.80;99.90;;;;;;5064446;28;20193;-52
2020/12/05 10:23:49;;;;;;;33.83;19.10;;;2.80;99.90;;;;;;5101473;28;20170;-45
2020/12/05 10:26:14;;;;;;;35.90;20.83;;;2.80;99.90;;;;;;5083016;28;20212;-49
2020/12/05 10:28:39;;;;;;;36.87;21.10;;;2.80;99.90;;;;;;5059037;28;20259;-49
2020/12/05 10:31:05;;;;;;;30.03;18.57;;;2.80;99.90;;;;;;5063575;28;20538;-48
2020/12/05 10:33:30;;;;;;;32.60;19.80;;;2.90;99.90;;;;;;5059540;28;20182;-49
2020/12/05 10:35:56;;;;;;;61.43;22.40;;;2.90;99.90;;;;;;5062333;28;20646;-45
2020/12/05 10:38:21;;;;;;;33.30;19.63;;;2.90;99.90;;;;;;5066043;28;20213;-52
2020/12/05 10:40:47;;;;;;;33.03;19.43;;;3.00;99.90;;;;;;5059000;28;21056;-45
2020/12/05 10:43:12;;;;;;;31.50;18.03;;;3.00;99.90;;;;;;5062152;28;20663;-46
2020/12/05 10:45:38;;;;;;;38.83;21.10;;;3.10;99.90;;;;;;5060075;28;20197;-47
2020/12/05 10:48:03;;;;;;;31.77;19.17;;;3.10;99.90;;;;;;5069411;28;20241;-52
2020/12/05 10:50:29;;;;;;;32.10;17.47;;;3.10;99.90;;;;;;5073783;28;20202;-46
2020/12/05 10:52:54;;;;;;;33.57;19.53;;;3.20;99.90;;;;;;5057493;28;20300;-45
2020/12/05 10:55:20;;;;;;;33.40;18.43;;;3.20;99.90;;;;;;5076438;28;20158;-48
2020/12/05 10:57:45;;;;;;;36.93;18.93;;;3.20;99.90;;;;;;5064916;28;20555;-46
2020/12/05 11:00:10;;;;;;;29.60;18.83;;;3.20;99.90;;;;;;5060490;28;20186;-49
2020/12/05 11:02:36;;;;;;;36.60;18.70;;;3.20;99.90;;;;;;5077032;28;20878;-51
2020/12/05 11:05:01;;;;;;;32.57;19.10;;;3.20;99.90;;;;;;5066802;28;20244;-47
2020/12/05 11:07:27;;;;;;;30.93;18.03;;;3.20;99.90;;;;;;5045771;28;20213;-45
2020/12/05 11:09:52;;;;;;;35.20;18.63;;;3.20;99.90;;;;;;5074865;28;20181;-50
2020/12/05 11:12:18;;;;;;;31.53;18.80;;;3.20;99.90;;;;;;5067882;28;20548;-46
2020/12/05 11:14:43;;;;;;;30.83;17.20;;;3.20;99.90;;;;;;5081782;28;20212;-45
2020/12/05 11:17:09;;;;;;;31.20;18.63;;;3.30;99.90;;;;;;5079671;28;20193;-42
2020/12/05 11:19:34;;;;;;;32.97;17.50;;;3.30;99.90;;;;;;5061957;28;20183;-44
2020/12/05 11:21:59;;;;;;;30.60;18.03;;;3.40;99.90;;;;;;5070200;28;20241;-47
2020/12/05 11:24:25;;;;;;;30.40;17.80;;;3.40;99.90;;;;;;5059244;28;20194;-45
2020/12/05 11:26:50;;;;;;;29.53;17.13;;;3.40;99.90;;;;;;5076368;28;20185;-45
2020/12/05 11:29:16;;;;;;;29.40;18.23;;;3.50;99.90;;;;;;5061940;28;20958;-50
2020/12/05 11:31:41;;;;;;;28.63;16.17;;;3.60;99.90;;;;;;5073283;28;20185;-47
2020/12/05 11:34:07;;;;;;;28.40;17.07;;;3.60;99.90;;;;;;5070440;28;20209;-50
2020/12/05 11:36:32;;;;;;;29.03;16.83;;;3.60;99.90;;;;;;5069899;28;20302;-47
2020/12/05 11:38:58;;;;;;;33.07;17.47;;;3.70;99.90;;;;;;5054422;28;20674;-48
2020/12/05 11:41:23;;;;;;;26.40;16.10;;;3.80;99.90;;;;;;5083331;28;20170;-45
2020/12/05 11:43:49;;;;;;;31.73;17.70;;;3.80;99.90;;;;;;5065132;28;20686;-46
2020/12/05 11:46:14;;;;;;;29.63;17.43;;;3.80;99.90;;;;;;5067932;28;20205;-46
2020/12/05 11:48:40;;;;;;;30.13;17.83;;;3.80;99.90;;;;;;5075085;28;20214;-48
2020/12/05 11:51:05;;;;;;;26.80;16.77;;;3.80;99.90;;;;;;5073667;28;20179;-52
2020/12/05 11:53:31;;;;;;;29.13;16.93;;;3.80;99.90;;;;;;5048931;28;20763;-44
2020/12/05 11:55:56;;;;;;;29.23;16.73;;;3.80;99.90;;;;;;5079315;28;20186;-51
2020/12/05 11:58:22;;;;;;;31.73;18.20;;;3.80;99.90;;;;;;5061983;28;20186;-47
2020/12/05 12:00:47;;;;;;;30.87;17.47;;;3.90;99.90;;;;;;5080088;28;20182;-44
2020/12/05 12:03:13;;;;;;;29.70;16.40;;;3.90;99.90;;;;;;5068677;28;20197;-48
2020/12/05 12:05:38;;;;;;;26.80;17.60;;;3.90;99.90;;;;;;5066894;28;20187;-48
2020/12/05 12:08:03;;;;;;;24.97;16.20;;;4.00;99.90;;;;;;5065469;28;20293;-45
2020/12/05 12:10:29;;;;;;;30.77;17.90;;;4.00;99.90;;;;;;5079366;28;20193;-48
2020/12/05 12:12:54;;;;;;;26.80;16.03;;;4.00;99.90;;;;;;5093617;28;20208;-47
2020/12/05 12:15:20;;;;;;;23.90;15.37;;;4.00;99.90;;;;;;5069209;28;20194;-54
2020/12/05 12:17:45;;;;;;;23.83;15.43;;;4.00;99.90;;;;;;5085094;28;20182;-48
2020/12/05 12:20:11;;;;;;;25.93;16.70;;;4.00;99.90;;;;;;5079189;28;21042;-53
2020/12/05 12:22:37;;;;;;;26.53;15.17;;;4.10;99.90;;;;;;5069076;28;20225;-51
2020/12/05 12:25:03;;;;;;;24.77;15.47;;;4.10;99.90;;;;;;5051542;28;20205;-46
2020/12/05 12:27:29;;;;;;;24.83;15.63;;;4.10;99.90;;;;;;5063307;28;20226;-49
2020/12/05 12:29:54;;;;;;;24.57;15.33;;;4.10;99.90;;;;;;5072257;28;20232;-53
2020/12/05 12:32:20;;;;;;;23.13;14.77;;;4.20;99.90;;;;;;5067927;28;20209;-53
2020/12/05 12:34:45;;;;;;;25.20;14.93;;;4.30;99.90;;;;;;5084242;28;20182;-45
2020/12/05 12:37:11;;;;;;;26.50;15.30;;;4.30;99.90;;;;;;5064642;28;20167;-48
2020/12/05 12:39:37;;;;;;;26.60;14.90;;;4.30;99.90;;;;;;5064910;28;20189;-46